sensor_id;sensor_type;location;lat;lon;timestamp;pressure;altitude;pressure_sealevel;temperature;humidity
18755;BME280;35061;47.664;9.166;2022-08-21T00:01:42;101795.02;;;17.42;100.00
18755;BME280;35061;47.664;9.166;2022-08-21T00:04:10;101792.10;;;17.37;100.00
18755;BME280;35061;47.664;9.166;2022-08-21T00:06:47;101785.01;;;17.38;100.00
18755;BME280;35061;47.664;9.166;2022-08-21T00:09:15;101788.93;;;17.40;100.00
18755;BME280;35061;47.664;9.166;2022-08-21T00:11:43;101780.79;;;17.39;100.00
18755;BME280;35061;47.664;9.166;2022-08-21T00:14:11;101790.80;;;17.38;100.00
18755;BME280;35061;47.664;9.166;2022-08-21T00:16:40;101791.55;;;17.38;100.00
18755;BME280;35061;47.664;9.166;2022-08-21T00:19:08;101787.36;;;17.39;100.00
18755;BME280;35061;47.664;9.166;2022-08-21T00:21:36;101779.97;;;17.38;100.00
18755;BME280;35061;47.664;9.166;2022-08-21T00:24:04;101781.84;;;17.41;100.00
18755;BME280;35061;47.664;9.166;2022-08-21T00:26:33;101780.56;;;17.42;100.00
18755;BME280;35061;47.664;9.166;2022-08-21T00:29:02;101778.92;;;17.41;100.00
18755;BME280;35061;47.664;9.166;2022-08-21T00:31:30;101776.84;;;17.42;100.00
18755;BME280;35061;47.664;9.166;2022-08-21T00:33:58;101772.87;;;17.39;100.00
18755;BME280;35061;47.664;9.166;2022-08-21T00:36:27;101772.09;;;17.33;100.00
18755;BME280;35061;47.664;9.166;2022-08-21T00:38:55;101772.32;;;17.29;100.00
18755;BME280;35061;47.664;9.166;2022-08-21T00:41:23;101768.63;;;17.29;100.00
18755;BME280;35061;47.664;9.166;2022-08-21T00:44:09;101762.54;;;17.21;100.00
18755;BME280;35061;47.664;9.166;2022-08-21T00:46:38;101761.23;;;17.22;100.00
18755;BME280;35061;47.664;9.166;2022-08-21T00:49:07;101758.06;;;17.20;100.00
18755;BME280;35061;47.664;9.166;2022-08-21T00:51:48;101756.20;;;17.17;100.00
18755;BME280;35061;47.664;9.166;2022-08-21T00:54:19;101751.98;;;17.12;100.00
18755;BME280;35061;47.664;9.166;2022-08-21T00:56:53;101750.41;;;17.11;100.00
18755;BME280;35061;47.664;9.166;2022-08-21T00:59:25;101750.64;;;17.08;100.00
18755;BME280;35061;47.664;9.166;2022-08-21T01:01:54;101754.04;;;17.06;100.00
18755;BME280;35061;47.664;9.166;2022-08-21T01:04:23;101754.53;;;17.05;100.00
18755;BME280;35061;47.664;9.166;2022-08-21T01:06:51;101752.96;;;17.04;100.00
18755;BME280;35061;47.664;9.166;2022-08-21T01:09:19;101755.58;;;17.01;100.00
18755;BME280;35061;47.664;9.166;2022-08-21T01:11:47;101755.28;;;16.99;100.00
18755;BME280;35061;47.664;9.166;2022-08-21T01:14:15;101756.59;;;16.98;100.00
18755;BME280;35061;47.664;9.166;2022-08-21T01:16:48;101753.71;;;16.98;100.00
18755;BME280;35061;47.664;9.166;2022-08-21T01:19:18;101750.80;;;16.98;100.00
18755;BME280;35061;47.664;9.166;2022-08-21T01:21:47;101761.37;;;17.01;100.00
18755;BME280;35061;47.664;9.166;2022-08-21T01:24:15;101762.45;;;17.04;100.00
18755;BME280;35061;47.664;9.166;2022-08-21T01:26:43;101756.16;;;17.06;100.00
18755;BME280;35061;47.664;9.166;2022-08-21T01:29:34;101751.42;;;17.08;100.00
18755;BME280;35061;47.664;9.166;2022-08-21T01:32:06;101748.81;;;17.10;100.00
18755;BME280;35061;47.664;9.166;2022-08-21T01:34:37;101759.60;;;17.15;100.00
18755;BME280;35061;47.664;9.166;2022-08-21T01:37:06;101749.89;;;17.19;100.00
18755;BME280;35061;47.664;9.166;2022-08-21T01:39:34;101756.23;;;17.23;100.00
18755;BME280;35061;47.664;9.166;2022-08-21T01:42:04;101752.80;;;17.24;100.00
18755;BME280;35061;47.664;9.166;2022-08-21T01:44:33;101744.13;;;17.24;100.00
18755;BME280;35061;47.664;9.166;2022-08-21T01:47:04;101751.00;;;17.27;100.00
18755;BME280;35061;47.664;9.166;2022-08-21T01:49:33;101743.61;;;17.26;100.00
18755;BME280;35061;47.664;9.166;2022-08-21T01:52:01;101744.43;;;17.26;100.00
18755;BME280;35061;47.664;9.166;2022-08-21T01:54:30;101744.95;;;17.30;100.00
18755;BME280;35061;47.664;9.166;2022-08-21T01:56:58;101749.95;;;17.30;100.00
18755;BME280;35061;47.664;9.166;2022-08-21T01:59:27;101747.60;;;17.34;100.00
18755;BME280;35061;47.664;9.166;2022-08-21T02:01:54;101738.12;;;17.34;100.00
18755;BME280;35061;47.664;9.166;2022-08-21T02:04:23;101740.24;;;17.33;100.00
18755;BME280;35061;47.664;9.166;2022-08-21T02:06:51;101726.77;;;17.30;100.00
18755;BME280;35061;47.664;9.166;2022-08-21T02:09:19;101728.89;;;17.29;100.00
18755;BME280;35061;47.664;9.166;2022-08-21T02:11:49;101726.51;;;17.28;100.00
18755;BME280;35061;47.664;9.166;2022-08-21T02:14:17;101710.74;;;17.29;100.00
18755;BME280;35061;47.664;9.166;2022-08-21T02:16:58;101715.20;;;17.30;100.00
18755;BME280;35061;47.664;9.166;2022-08-21T02:19:34;101712.61;;;17.32;100.00
18755;BME280;35061;47.664;9.166;2022-08-21T02:22:10;101710.23;;;17.30;100.00
18755;BME280;35061;47.664;9.166;2022-08-21T02:24:38;101721.02;;;17.36;100.00
18755;BME280;35061;47.664;9.166;2022-08-21T02:27:22;101711.56;;;17.35;100.00
18755;BME280;35061;47.664;9.166;2022-08-21T02:29:54;101714.44;;;17.35;100.00
18755;BME280;35061;47.664;9.166;2022-08-21T02:32:22;101707.61;;;17.33;100.00
18755;BME280;35061;47.664;9.166;2022-08-21T02:34:50;101710.48;;;17.33;100.00
18755;BME280;35061;47.664;9.166;2022-08-21T02:37:18;101709.70;;;17.32;100.00
18755;BME280;35061;47.664;9.166;2022-08-21T02:39:45;101712.61;;;17.32;100.00
18755;BME280;35061;47.664;9.166;2022-08-21T02:42:14;101717.58;;;17.32;100.00
18755;BME280;35061;47.664;9.166;2022-08-21T02:44:42;101709.41;;;17.30;100.00
18755;BME280;35061;47.664;9.166;2022-08-21T02:47:09;101712.05;;;17.28;100.00
18755;BME280;35061;47.664;9.166;2022-08-21T02:49:37;101707.57;;;17.27;100.00
18755;BME280;35061;47.664;9.166;2022-08-21T02:52:05;101707.80;;;17.23;100.00
18755;BME280;35061;47.664;9.166;2022-08-21T02:54:33;101707.80;;;17.18;100.00
18755;BME280;35061;47.664;9.166;2022-08-21T02:57:01;101712.80;;;17.17;100.00
18755;BME280;35061;47.664;9.166;2022-08-21T02:59:28;101703.06;;;17.14;100.00
18755;BME280;35061;47.664;9.166;2022-08-21T03:01:56;101708.85;;;17.14;100.00
18755;BME280;35061;47.664;9.166;2022-08-21T03:04:24;101705.45;;;17.16;100.00
18755;BME280;35061;47.664;9.166;2022-08-21T03:06:52;101703.59;;;17.19;100.00
18755;BME280;35061;47.664;9.166;2022-08-21T03:09:19;101708.85;;;17.20;100.00
18755;BME280;35061;47.664;9.166;2022-08-21T03:11:47;101706.79;;;17.21;100.00
18755;BME280;35061;47.664;9.166;2022-08-21T03:14:15;101704.92;;;17.23;100.00
18755;BME280;35061;47.664;9.166;2022-08-21T03:16:43;101697.83;;;17.24;100.00
18755;BME280;35061;47.664;9.166;2022-08-21T03:19:11;101699.40;;;17.25;100.00
18755;BME280;35061;47.664;9.166;2022-08-21T03:21:39;101696.49;;;17.25;100.00
18755;BME280;35061;47.664;9.166;2022-08-21T03:24:07;101697.30;;;17.26;100.00
18755;BME280;35061;47.664;9.166;2022-08-21T03:26:35;101703.91;;;17.26;100.00
18755;BME280;35061;47.664;9.166;2022-08-21T03:29:06;101703.91;;;17.26;100.00
18755;BME280;35061;47.664;9.166;2022-08-21T03:31:34;101707.31;;;17.25;100.00
18755;BME280;35061;47.664;9.166;2022-08-21T03:34:02;101708.59;;;17.18;100.00
18755;BME280;35061;47.664;9.166;2022-08-21T03:36:30;101697.53;;;17.16;100.00
18755;BME280;35061;47.664;9.166;2022-08-21T03:38:58;101703.06;;;17.14;100.00
18755;BME280;35061;47.664;9.166;2022-08-21T03:41:26;101703.55;;;17.13;100.00
18755;BME280;35061;47.664;9.166;2022-08-21T03:43:53;101699.89;;;17.12;100.00
18755;BME280;35061;47.664;9.166;2022-08-21T03:46:21;101697.27;;;17.14;100.00
18755;BME280;35061;47.664;9.166;2022-08-21T03:48:49;101704.37;;;17.13;100.00
18755;BME280;35061;47.664;9.166;2022-08-21T03:51:17;101703.81;;;17.09;100.00
18755;BME280;35061;47.664;9.166;2022-08-21T03:53:45;101698.81;;;17.10;100.00
18755;BME280;35061;47.664;9.166;2022-08-21T03:56:12;101703.03;;;17.09;100.00
18755;BME280;35061;47.664;9.166;2022-08-21T03:58:40;101701.98;;;17.12;100.00
18755;BME280;35061;47.664;9.166;2022-08-21T04:01:08;101705.16;;;17.14;100.00
18755;BME280;35061;47.664;9.166;2022-08-21T04:03:37;101704.37;;;17.13;100.00
18755;BME280;35061;47.664;9.166;2022-08-21T04:06:05;101707.77;;;17.12;100.00
18755;BME280;35061;47.664;9.166;2022-08-21T04:08:33;101711.73;;;17.14;100.00
18755;BME280;35061;47.664;9.166;2022-08-21T04:11:02;101712.80;;;17.17;100.00
18755;BME280;35061;47.664;9.166;2022-08-21T04:13:30;101717.25;;;17.12;100.00
18755;BME280;35061;47.664;9.166;2022-08-21T04:15:57;101720.16;;;17.12;100.00
18755;BME280;35061;47.664;9.166;2022-08-21T04:18:28;101727.52;;;17.13;100.00
18755;BME280;35061;47.664;9.166;2022-08-21T04:20:57;101714.64;;;17.14;100.00
18755;BME280;35061;47.664;9.166;2022-08-21T04:23:27;101723.30;;;17.14;100.00
18755;BME280;35061;47.664;9.166;2022-08-21T04:25:56;101719.09;;;17.10;100.00
18755;BME280;35061;47.664;9.166;2022-08-21T04:28:26;101717.48;;;17.09;100.00
18755;BME280;35061;47.664;9.166;2022-08-21T04:30:56;101715.91;;;17.08;100.00
18755;BME280;35061;47.664;9.166;2022-08-21T04:33:24;101730.10;;;17.06;100.00
18755;BME280;35061;47.664;9.166;2022-08-21T04:35:52;101723.01;;;17.07;100.00
18755;BME280;35061;47.664;9.166;2022-08-21T04:38:20;101728.27;;;17.08;100.00
18755;BME280;35061;47.664;9.166;2022-08-21T04:40:49;101726.97;;;17.09;100.00
18755;BME280;35061;47.664;9.166;2022-08-21T04:43:18;101730.14;;;17.11;100.00
18755;BME280;35061;47.664;9.166;2022-08-21T04:45:48;101729.62;;;17.13;100.00
18755;BME280;35061;47.664;9.166;2022-08-21T04:48:18;101724.61;;;17.13;100.00
18755;BME280;35061;47.664;9.166;2022-08-21T04:53:20;101735.14;;;17.16;100.00
18755;BME280;35061;47.664;9.166;2022-08-21T04:55:51;101725.95;;;17.18;100.00
18755;BME280;35061;47.664;9.166;2022-08-21T04:58:20;101732.52;;;17.19;100.00
18755;BME280;35061;47.664;9.166;2022-08-21T05:00:52;101727.03;;;17.21;100.00
18755;BME280;35061;47.664;9.166;2022-08-21T05:03:21;101727.81;;;17.21;100.00
18755;BME280;35061;47.664;9.166;2022-08-21T05:05:50;101722.81;;;17.22;100.00
18755;BME280;35061;47.664;9.166;2022-08-21T05:08:19;101725.72;;;17.22;100.00
18755;BME280;35061;47.664;9.166;2022-08-21T05:10:49;101735.99;;;17.23;100.00
18755;BME280;35061;47.664;9.166;2022-08-21T05:13:17;101733.08;;;17.23;100.00
18755;BME280;35061;47.664;9.166;2022-08-21T05:15:45;101736.48;;;17.21;100.00
18755;BME280;35061;47.664;9.166;2022-08-21T05:18:13;101737.30;;;17.22;100.00
18755;BME280;35061;47.664;9.166;2022-08-21T05:20:41;101749.13;;;17.24;100.00
18755;BME280;35061;47.664;9.166;2022-08-21T05:23:11;101738.87;;;17.23;100.00
18755;BME280;35061;47.664;9.166;2022-08-21T05:25:39;101737.82;;;17.26;100.00
18755;BME280;35061;47.664;9.166;2022-08-21T05:28:07;101740.73;;;17.26;100.00
18755;BME280;35061;47.664;9.166;2022-08-21T05:30:36;101750.22;;;17.26;100.00
18755;BME280;35061;47.664;9.166;2022-08-21T05:33:06;101740.99;;;17.28;100.00
18755;BME280;35061;47.664;9.166;2022-08-21T05:35:34;101744.95;;;17.30;100.00
18755;BME280;35061;47.664;9.166;2022-08-21T05:38:02;101742.56;;;17.29;100.00
18755;BME280;35061;47.664;9.166;2022-08-21T05:40:30;101744.46;;;17.32;100.00
18755;BME280;35061;47.664;9.166;2022-08-21T05:42:59;101742.34;;;17.33;100.00
18755;BME280;35061;47.664;9.166;2022-08-21T05:45:30;101736.28;;;17.36;100.00
18755;BME280;35061;47.664;9.166;2022-08-21T05:48:17;101742.89;;;17.37;100.00
18755;BME280;35061;47.664;9.166;2022-08-21T05:50:47;101743.67;;;17.37;100.00
18755;BME280;35061;47.664;9.166;2022-08-21T05:53:16;101742.63;;;17.40;100.00
18755;BME280;35061;47.664;9.166;2022-08-21T05:55:45;101747.08;;;17.41;100.00
18755;BME280;35061;47.664;9.166;2022-08-21T05:58:18;101753.45;;;17.46;100.00
18755;BME280;35061;47.664;9.166;2022-08-21T06:00:47;101749.23;;;17.47;100.00
18755;BME280;35061;47.664;9.166;2022-08-21T06:03:25;101744.23;;;17.47;100.00
18755;BME280;35061;47.664;9.166;2022-08-21T06:05:54;101745.02;;;17.48;100.00
18755;BME280;35061;47.664;9.166;2022-08-21T06:08:23;101733.70;;;17.50;100.00
18755;BME280;35061;47.664;9.166;2022-08-21T06:10:52;101739.26;;;17.53;100.00
18755;BME280;35061;47.664;9.166;2022-08-21T06:13:22;101736.13;;;17.57;100.00
18755;BME280;35061;47.664;9.166;2022-08-21T06:15:59;101732.72;;;17.64;100.00
18755;BME280;35061;47.664;9.166;2022-08-21T06:18:27;101748.77;;;17.71;100.00
18755;BME280;35061;47.664;9.166;2022-08-21T06:20:55;101737.23;;;17.77;100.00
18755;BME280;35061;47.664;9.166;2022-08-21T06:23:26;101736.16;;;17.80;100.00
18755;BME280;35061;47.664;9.166;2022-08-21T06:26:00;101731.70;;;17.84;100.00
18755;BME280;35061;47.664;9.166;2022-08-21T06:28:28;101734.84;;;17.86;100.00
18755;BME280;35061;47.664;9.166;2022-08-21T06:30:56;101739.62;;;17.90;100.00
18755;BME280;35061;47.664;9.166;2022-08-21T06:33:23;101734.62;;;17.90;100.00
18755;BME280;35061;47.664;9.166;2022-08-21T06:35:57;101736.74;;;17.95;100.00
18755;BME280;35061;47.664;9.166;2022-08-21T06:38:25;101732.00;;;18.04;100.00
18755;BME280;35061;47.664;9.166;2022-08-21T06:40:54;101732.82;;;18.10;100.00
18755;BME280;35061;47.664;9.166;2022-08-21T06:43:23;101733.60;;;18.16;100.00
18755;BME280;35061;47.664;9.166;2022-08-21T06:46:05;101739.95;;;18.20;100.00
18755;BME280;35061;47.664;9.166;2022-08-21T06:48:33;101738.12;;;18.29;100.00
18755;BME280;35061;47.664;9.166;2022-08-21T06:51:01;101732.82;;;18.38;100.00
18755;BME280;35061;47.664;9.166;2022-08-21T06:53:30;101730.73;;;18.45;100.00
18755;BME280;35061;47.664;9.166;2022-08-21T06:55:57;101728.08;;;18.52;99.74
18755;BME280;35061;47.664;9.166;2022-08-21T06:58:25;101730.46;;;18.60;99.03
18755;BME280;35061;47.664;9.166;2022-08-21T07:00:53;101729.65;;;18.65;98.27
18755;BME280;35061;47.664;9.166;2022-08-21T07:03:33;101729.88;;;18.73;97.91
18755;BME280;35061;47.664;9.166;2022-08-21T07:06:02;101726.70;;;18.82;97.69
18755;BME280;35061;47.664;9.166;2022-08-21T07:08:30;101730.92;;;18.81;96.08
18755;BME280;35061;47.664;9.166;2022-08-21T07:11:00;101726.18;;;18.83;95.69
18755;BME280;35061;47.664;9.166;2022-08-21T07:13:29;101729.35;;;18.86;94.93
18755;BME280;35061;47.664;9.166;2022-08-21T07:15:56;101721.93;;;18.90;95.48
18755;BME280;35061;47.664;9.166;2022-08-21T07:18:29;101728.53;;;18.91;93.81
18755;BME280;35061;47.664;9.166;2022-08-21T07:20:57;101720.36;;;18.89;93.92
18755;BME280;35061;47.664;9.166;2022-08-21T07:23:28;101726.93;;;18.90;93.18
18755;BME280;35061;47.664;9.166;2022-08-21T07:25:56;101729.58;;;18.88;91.97
18755;BME280;35061;47.664;9.166;2022-08-21T07:28:24;101730.40;;;18.88;92.30
18755;BME280;35061;47.664;9.166;2022-08-21T07:30:54;101732.49;;;18.88;92.33
18755;BME280;35061;47.664;9.166;2022-08-21T07:33:24;101734.06;;;18.89;92.19
18755;BME280;35061;47.664;9.166;2022-08-21T07:35:52;101734.87;;;18.89;92.16
18755;BME280;35061;47.664;9.166;2022-08-21T07:38:21;101731.45;;;18.85;89.30
18755;BME280;35061;47.664;9.166;2022-08-21T07:40:51;101733.57;;;18.85;90.44
18755;BME280;35061;47.664;9.166;2022-08-21T07:43:20;101727.52;;;18.82;90.48
18755;BME280;35061;47.664;9.166;2022-08-21T07:45:49;101731.74;;;18.81;90.32
18755;BME280;35061;47.664;9.166;2022-08-21T07:48:17;101730.17;;;18.80;90.35
18755;BME280;35061;47.664;9.166;2022-08-21T07:50:45;101729.62;;;18.82;90.30
18755;BME280;35061;47.664;9.166;2022-08-21T07:53:13;101730.92;;;18.87;90.49
18755;BME280;35061;47.664;9.166;2022-08-21T07:55:40;101731.70;;;18.93;90.55
18755;BME280;35061;47.664;9.166;2022-08-21T07:58:08;101723.76;;;18.99;88.37
18755;BME280;35061;47.664;9.166;2022-08-21T08:00:36;101727.98;;;19.04;88.08
18755;BME280;35061;47.664;9.166;2022-08-21T08:03:04;101723.76;;;19.10;88.93
18755;BME280;35061;47.664;9.166;2022-08-21T08:05:32;101719.77;;;19.19;88.57
18755;BME280;35061;47.664;9.166;2022-08-21T08:08:00;101718.70;;;19.28;88.45
18755;BME280;35061;47.664;9.166;2022-08-21T08:10:28;101715.48;;;19.32;87.36
18755;BME280;35061;47.664;9.166;2022-08-21T08:12:56;101711.76;;;19.37;87.37
18755;BME280;35061;47.664;9.166;2022-08-21T08:15:26;101708.82;;;19.43;87.65
18755;BME280;35061;47.664;9.166;2022-08-21T08:17:55;101707.77;;;19.46;85.82
18755;BME280;35061;47.664;9.166;2022-08-21T08:20:24;101702.21;;;19.48;85.91
18755;BME280;35061;47.664;9.166;2022-08-21T08:22:54;101705.61;;;19.52;85.44
18755;BME280;35061;47.664;9.166;2022-08-21T08:25:23;101705.09;;;19.53;85.61
18755;BME280;35061;47.664;9.166;2022-08-21T08:27:51;101706.95;;;19.51;84.69
18755;BME280;35061;47.664;9.166;2022-08-21T08:30:20;101704.27;;;19.53;84.51
18755;BME280;35061;47.664;9.166;2022-08-21T08:32:48;101706.92;;;19.57;84.83
18755;BME280;35061;47.664;9.166;2022-08-21T08:35:17;101692.40;;;19.57;82.94
18755;BME280;35061;47.664;9.166;2022-08-21T08:37:50;101699.50;;;19.61;84.07
18755;BME280;35061;47.664;9.166;2022-08-21T08:43:10;101700.55;;;19.64;82.51
18755;BME280;35061;47.664;9.166;2022-08-21T08:45:43;101702.15;;;19.59;83.06
18755;BME280;35061;47.664;9.166;2022-08-21T08:54:09;101695.77;;;19.66;82.85
18755;BME280;35061;47.664;9.166;2022-08-21T08:56:38;101696.03;;;19.69;82.00
18755;BME280;35061;47.664;9.166;2022-08-21T08:59:19;101693.88;;;19.75;82.74
18755;BME280;35061;47.664;9.166;2022-08-21T09:01:50;101684.13;;;19.72;81.44
18755;BME280;35061;47.664;9.166;2022-08-21T09:04:23;101682.52;;;19.77;81.93
18755;BME280;35061;47.664;9.166;2022-08-21T09:10:26;101686.16;;;19.83;81.21
18755;BME280;35061;47.664;9.166;2022-08-21T09:12:47;101681.91;;;19.84;79.53
18755;BME280;35061;47.664;9.166;2022-08-21T09:15:32;101671.27;;;19.92;80.82
18755;BME280;35061;47.664;9.166;2022-08-21T09:26:14;101668.17;;;20.21;79.67
18755;BME280;35061;47.664;9.166;2022-08-21T09:28:43;101659.67;;;20.29;80.22
18755;BME280;35061;47.664;9.166;2022-08-21T09:31:33;101671.48;;;20.36;79.24
18755;BME280;35061;47.664;9.166;2022-08-21T09:34:11;101663.46;;;20.43;79.49
18755;BME280;35061;47.664;9.166;2022-08-21T09:36:44;101665.26;;;20.52;78.55
18755;BME280;35061;47.664;9.166;2022-08-21T09:39:23;101654.57;;;20.60;79.26
18755;BME280;35061;47.664;9.166;2022-08-21T09:42:03;101654.21;;;20.69;80.16
18755;BME280;35061;47.664;9.166;2022-08-21T09:44:40;101662.09;;;20.74;78.06
18755;BME280;35061;47.664;9.166;2022-08-21T09:47:11;101655.68;;;20.82;78.80
18755;BME280;35061;47.664;9.166;2022-08-21T09:49:43;101661.92;;;20.91;78.98
18755;BME280;35061;47.664;9.166;2022-08-21T09:52:19;101653.13;;;20.97;78.67
18755;BME280;35061;47.664;9.166;2022-08-21T09:54:52;101655.65;;;21.07;79.18
18755;BME280;35061;47.664;9.166;2022-08-21T09:57:27;101654.17;;;21.19;79.55
18755;BME280;35061;47.664;9.166;2022-08-21T10:00:22;101649.43;;;21.35;79.09
18755;BME280;35061;47.664;9.166;2022-08-21T10:02:51;101641.81;;;21.51;79.14
18755;BME280;35061;47.664;9.166;2022-08-21T10:05:23;101641.32;;;21.66;78.03
18755;BME280;35061;47.664;9.166;2022-08-21T10:07:51;101638.48;;;21.80;76.83
18755;BME280;35061;47.664;9.166;2022-08-21T10:10:22;101639.85;;;21.92;76.37
18755;BME280;35061;47.664;9.166;2022-08-21T10:13:18;101636.29;;;21.99;74.72
18755;BME280;35061;47.664;9.166;2022-08-21T10:21:22;101633.77;;;22.23;72.92
18755;BME280;35061;47.664;9.166;2022-08-21T10:24:24;101625.46;;;22.27;69.18
18755;BME280;35061;47.664;9.166;2022-08-21T10:29:55;101610.13;;;22.40;66.91
18755;BME280;35061;47.664;9.166;2022-08-21T10:35:13;101604.66;;;22.50;62.96
18755;BME280;35061;47.664;9.166;2022-08-21T10:40:42;101602.87;;;22.60;61.37
18755;BME280;35061;47.664;9.166;2022-08-21T10:44:12;101599.83;;;22.66;60.42
18755;BME280;35061;47.664;9.166;2022-08-21T10:46:19;101605.78;;;22.74;59.71
18755;BME280;35061;47.664;9.166;2022-08-21T10:51:46;101589.40;;;22.84;59.30
18755;BME280;35061;47.664;9.166;2022-08-21T10:54:44;101593.29;;;22.86;58.67
18755;BME280;35061;47.664;9.166;2022-08-21T11:00:06;101595.74;;;22.96;58.84
18755;BME280;35061;47.664;9.166;2022-08-21T11:02:47;101590.70;;;22.96;58.82
18755;BME280;35061;47.664;9.166;2022-08-21T11:05:25;101587.80;;;22.96;56.15
18755;BME280;35061;47.664;9.166;2022-08-21T11:08:08;101589.79;;;23.02;57.50
18755;BME280;35061;47.664;9.166;2022-08-21T11:11:03;101583.61;;;23.05;55.02
18755;BME280;35061;47.664;9.166;2022-08-21T11:18:47;101569.41;;;23.23;56.29
18755;BME280;35061;47.664;9.166;2022-08-21T11:24:10;101564.80;;;23.27;53.63
18755;BME280;35061;47.664;9.166;2022-08-21T11:26:45;101554.34;;;23.32;54.00
18755;BME280;35061;47.664;9.166;2022-08-21T11:29:37;101558.27;;;23.35;52.32
18755;BME280;35061;47.664;9.166;2022-08-21T11:35:01;101549.34;;;23.40;51.27
18755;BME280;35061;47.664;9.166;2022-08-21T11:45:39;101540.25;;;23.65;53.15
18755;BME280;35061;47.664;9.166;2022-08-21T11:51:20;101532.89;;;23.72;50.86
18755;BME280;35061;47.664;9.166;2022-08-21T11:54:03;101527.27;;;23.74;50.82
18755;BME280;35061;47.664;9.166;2022-08-21T11:56:46;101524.20;;;23.80;52.08
18755;BME280;35061;47.664;9.166;2022-08-21T11:59:40;101524.84;;;23.86;52.62
18755;BME280;35061;47.664;9.166;2022-08-21T12:02:15;101510.06;;;23.92;50.83
18755;BME280;35061;47.664;9.166;2022-08-21T12:04:52;101518.08;;;23.99;51.26
18755;BME280;35061;47.664;9.166;2022-08-21T12:07:34;101518.53;;;24.03;51.52
18755;BME280;35061;47.664;9.166;2022-08-21T12:10:07;101516.24;;;24.09;51.23
18755;BME280;35061;47.664;9.166;2022-08-21T12:12:38;101514.31;;;24.12;50.43
18755;BME280;35061;47.664;9.166;2022-08-21T12:15:14;101509.25;;;24.13;50.57
18755;BME280;35061;47.664;9.166;2022-08-21T12:28:21;101496.23;;;24.21;50.90
18755;BME280;35061;47.664;9.166;2022-08-21T12:30:50;101497.45;;;24.26;51.12
18755;BME280;35061;47.664;9.166;2022-08-21T12:33:34;101490.05;;;24.33;51.59
18755;BME280;35061;47.664;9.166;2022-08-21T12:36:07;101489.89;;;24.38;51.14
18755;BME280;35061;47.664;9.166;2022-08-21T12:39:00;101491.10;;;24.43;51.38
18755;BME280;35061;47.664;9.166;2022-08-21T12:41:32;101480.57;;;24.48;50.17
18755;BME280;35061;47.664;9.166;2022-08-21T12:44:08;101481.59;;;24.50;50.15
18755;BME280;35061;47.664;9.166;2022-08-21T12:47:04;101473.57;;;24.51;49.03
18755;BME280;35061;47.664;9.166;2022-08-21T12:49:35;101476.91;;;24.55;49.55
18755;BME280;35061;47.664;9.166;2022-08-21T12:54:49;101476.55;;;24.66;49.34
18755;BME280;35061;47.664;9.166;2022-08-21T12:57:26;101467.98;;;24.69;50.27
18755;BME280;35061;47.664;9.166;2022-08-21T12:59:57;101466.25;;;24.73;50.00
18755;BME280;35061;47.664;9.166;2022-08-21T13:02:32;101468.38;;;24.73;49.93
18755;BME280;35061;47.664;9.166;2022-08-21T13:05:06;101469.16;;;24.73;48.73
18755;BME280;35061;47.664;9.166;2022-08-21T13:07:35;101471.28;;;24.73;48.92
18755;BME280;35061;47.664;9.166;2022-08-21T13:10:25;101471.28;;;24.73;49.94
18755;BME280;35061;47.664;9.166;2022-08-21T13:13:05;101468.54;;;24.67;48.36
18755;BME280;35061;47.664;9.166;2022-08-21T13:15:40;101470.50;;;24.64;48.89
18755;BME280;35061;47.664;9.166;2022-08-21T13:18:21;101477.30;;;24.59;49.15
18755;BME280;35061;47.664;9.166;2022-08-21T13:20:50;101467.33;;;24.55;48.81
18755;BME280;35061;47.664;9.166;2022-08-21T13:23:25;101466.34;;;24.52;49.76
18755;BME280;35061;47.664;9.166;2022-08-21T13:25:54;101467.52;;;24.49;49.72
18755;BME280;35061;47.664;9.166;2022-08-21T13:28:22;101466.31;;;24.44;50.00
18755;BME280;35061;47.664;9.166;2022-08-21T13:30:52;101469.02;;;24.42;49.96
18755;BME280;35061;47.664;9.166;2022-08-21T13:33:23;101459.05;;;24.37;50.08
18755;BME280;35061;47.664;9.166;2022-08-21T13:38:39;101451.66;;;24.36;50.19
18755;BME280;35061;47.664;9.166;2022-08-21T13:41:44;101458.86;;;24.35;50.54
18755;BME280;35061;47.664;9.166;2022-08-21T13:44:20;101455.75;;;24.33;49.93
18755;BME280;35061;47.664;9.166;2022-08-21T13:46:49;101444.80;;;24.34;50.88
18755;BME280;35061;47.664;9.166;2022-08-21T13:49:28;101458.86;;;24.35;50.49
18755;BME280;35061;47.664;9.166;2022-08-21T13:51:57;101453.00;;;24.35;50.42
18755;BME280;35061;47.664;9.166;2022-08-21T13:54:40;101454.57;;;24.36;50.69
18755;BME280;35061;47.664;9.166;2022-08-21T13:57:30;101450.65;;;24.34;49.61
18755;BME280;35061;47.664;9.166;2022-08-21T14:00:19;101454.18;;;24.32;49.52
18755;BME280;35061;47.664;9.166;2022-08-21T14:02:50;101453.95;;;24.30;50.07
18755;BME280;35061;47.664;9.166;2022-08-21T14:05:29;101446.34;;;24.27;50.82
18755;BME280;35061;47.664;9.166;2022-08-21T14:08:32;101450.42;;;24.24;49.69
18755;BME280;35061;47.664;9.166;2022-08-21T14:11:03;101451.80;;;24.23;49.20
18755;BME280;35061;47.664;9.166;2022-08-21T14:13:48;101444.96;;;24.20;49.87
18755;BME280;35061;47.664;9.166;2022-08-21T14:16:19;101444.73;;;24.18;49.63
18755;BME280;35061;47.664;9.166;2022-08-21T14:18:51;101448.62;;;24.21;50.14
18755;BME280;35061;47.664;9.166;2022-08-21T14:21:32;101449.99;;;24.20;49.94
18755;BME280;35061;47.664;9.166;2022-08-21T14:24:10;101439.11;;;24.20;50.13
18755;BME280;35061;47.664;9.166;2022-08-21T14:26:52;101444.37;;;24.22;50.45
18755;BME280;35061;47.664;9.166;2022-08-21T14:29:22;101436.95;;;24.21;49.67
18755;BME280;35061;47.664;9.166;2022-08-21T14:31:56;101440.28;;;24.25;49.61